Time,TemperatureF,DewpointF,PressureIn,WindDirection,WindDirectionDegrees,WindSpeedMPH,WindSpeedGustMPH,Humidity,HourlyPrecipIn,Conditions,Clouds,dailyrainin,SoftwareType,DateUTC
2013-04-09 00:00:00,67.2,51.9,30.04,WSW,243,5.0,6.0,58,0.00,,---,0.00,VWS V14.01,2013-04-09 04:00:00,
2013-04-09 00:05:00,67.0,51.8,30.04,WSW,247,3.0,6.0,58,0.00,,---,0.00,VWS V14.01,2013-04-09 04:05:00,
2013-04-09 00:10:00,66.9,51.7,30.04,West,263,4.0,7.0,58,0.00,,---,0.00,VWS V14.01,2013-04-09 04:10:00,
2013-04-09 00:15:00,66.9,51.7,30.04,WSW,241,4.0,11.0,58,0.00,,---,0.00,VWS V14.01,2013-04-09 04:15:00,
2013-04-09 00:20:00,66.9,51.7,30.04,WSW,250,2.0,5.0,58,0.00,,---,0.00,VWS V14.01,2013-04-09 04:20:00,
2013-04-09 00:25:00,66.8,51.6,30.04,WNW,286,2.0,10.0,58,0.00,,---,0.00,VWS V14.01,2013-04-09 04:25:00,
2013-04-09 00:30:00,66.9,52.1,30.04,WSW,252,6.0,6.0,59,0.00,,---,0.00,VWS V14.01,2013-04-09 04:30:00,
2013-04-09 00:35:00,66.9,51.7,30.04,WSW,241,3.0,6.0,58,0.00,,---,0.00,VWS V14.01,2013-04-09 04:35:00,
2013-04-09 00:40:00,66.8,51.6,30.05,SW,226,3.0,6.0,58,0.00,,---,0.00,VWS V14.01,2013-04-09 04:40:00,
2013-04-09 00:45:00,66.8,51.6,30.05,ESE,106,5.0,5.0,58,0.00,,---,0.00,VWS V14.01,2013-04-09 04:45:00,
2013-04-09 00:50:00,66.7,51.9,30.05,SSW,207,3.0,12.0,59,0.00,,---,0.00,VWS V14.01,2013-04-09 04:50:00,
2013-04-09 00:55:00,66.2,51.5,30.05,WSW,238,3.0,4.0,59,0.00,,---,0.00,VWS V14.01,2013-04-09 04:55:00,
2013-04-09 01:00:00,66.2,51.9,30.05,WSW,250,1.0,6.0,60,0.00,,---,0.00,VWS V14.01,2013-04-09 05:00:00,
2013-04-09 01:05:00,65.9,51.6,30.05,SW,232,4.0,4.0,60,0.00,,---,0.00,VWS V14.01,2013-04-09 05:05:00,
2013-04-09 01:10:00,66.2,51.9,30.05,WSW,243,3.0,9.0,60,0.00,,---,0.00,VWS V14.01,2013-04-09 05:10:00,
2013-04-09 01:15:00,66.4,51.7,30.05,SW,219,6.0,8.0,59,0.00,,---,0.00,VWS V14.01,2013-04-09 05:15:00,
2013-04-09 01:20:00,66.7,51.9,30.05,West,281,2.0,7.0,59,0.00,,---,0.00,VWS V14.01,2013-04-09 05:20:00,
2013-04-09 01:25:00,66.6,51.8,30.05,SSW,212,2.0,4.0,59,0.00,,---,0.00,VWS V14.01,2013-04-09 05:25:00,
2013-04-09 01:30:00,66.5,51.8,30.05,SSW,209,1.0,5.0,59,0.00,,---,0.00,VWS V14.01,2013-04-09 05:30:00,
2013-04-09 01:35:00,65.8,52.0,30.05,SSW,208,0.0,4.0,61,0.00,,---,0.00,VWS V14.01,2013-04-09 05:35:00,
2013-04-09 01:40:00,64.1,51.3,30.05,SSW,208,0.0,1.0,63,0.00,,---,0.00,VWS V14.01,2013-04-09 05:40:00,
2013-04-09 01:45:00,62.2,51.1,30.05,SSW,208,0.0,0.0,67,0.00,,---,0.00,VWS V14.01,2013-04-09 05:45:00,
2013-04-09 01:50:00,60.7,50.9,30.05,SSW,208,0.0,0.0,70,0.00,,---,0.00,VWS V14.01,2013-04-09 05:50:00,
2013-04-09 01:55:00,59.6,51.3,30.05,SSW,208,0.0,0.0,74,0.00,,---,0.00,VWS V14.01,2013-04-09 05:55:00,
2013-04-09 02:00:00,59.2,50.9,30.05,WSW,243,3.0,4.0,74,0.00,,---,0.00,VWS V14.01,2013-04-09 06:00:00,
2013-04-09 02:05:00,59.4,50.8,30.05,West,267,0.0,4.0,73,0.00,,---,0.00,VWS V14.01,2013-04-09 06:05:00,
2013-04-09 02:10:00,59.8,51.1,30.05,West,277,1.0,5.0,73,0.00,,---,0.00,VWS V14.01,2013-04-09 06:10:00,
2013-04-09 02:15:00,61.3,51.8,30.05,West,267,3.0,7.0,71,0.00,,---,0.00,VWS V14.01,2013-04-09 06:15:00,
2013-04-09 02:20:00,63.4,51.9,30.05,WSW,240,3.0,7.0,66,0.00,,---,0.00,VWS V14.01,2013-04-09 06:20:00,
2013-04-09 02:25:00,63.7,51.7,30.05,WSW,240,4.0,5.0,65,0.00,,---,0.00,VWS V14.01,2013-04-09 06:25:00,
2013-04-09 02:30:00,64.6,51.7,30.05,WSW,242,4.0,7.0,63,0.00,,---,0.00,VWS V14.01,2013-04-09 06:30:00,
2013-04-09 02:35:00,65.0,51.7,30.05,WSW,244,0.0,6.0,62,0.00,,---,0.00,VWS V14.01,2013-04-09 06:35:00,
2013-04-09 02:40:00,64.4,51.5,30.05,SSW,211,1.0,5.0,63,0.00,,---,0.00,VWS V14.01,2013-04-09 06:40:00,
2013-04-09 02:45:00,62.9,51.0,30.05,West,275,1.0,4.0,65,0.00,,---,0.00,VWS V14.01,2013-04-09 06:45:00,
2013-04-09 02:50:00,60.8,50.2,30.05,SSW,205,0.0,4.0,68,0.00,,---,0.00,VWS V14.01,2013-04-09 06:50:00,
2013-04-09 02:55:00,58.3,50.1,30.05,SSW,205,0.0,3.0,74,0.00,,---,0.00,VWS V14.01,2013-04-09 06:55:00,
2013-04-09 03:00:00,57.1,50.3,30.06,SSW,205,0.0,0.0,78,0.00,,---,0.00,VWS V14.01,2013-04-09 07:00:00,
2013-04-09 03:05:00,56.6,50.2,30.05,SSW,205,2.0,2.0,79,0.00,,---,0.00,VWS V14.01,2013-04-09 07:05:00,
2013-04-09 03:10:00,56.4,50.3,30.06,SSW,205,0.0,2.0,80,0.00,,---,0.00,VWS V14.01,2013-04-09 07:10:00,
2013-04-09 03:15:00,56.1,50.0,30.05,SSW,205,0.0,0.0,80,0.00,,---,0.00,VWS V14.01,2013-04-09 07:15:00,
2013-04-09 03:20:00,55.8,50.1,30.05,SSW,205,0.0,3.0,81,0.00,,---,0.00,VWS V14.01,2013-04-09 07:20:00,
2013-04-09 03:25:00,55.7,50.3,30.05,SSW,205,0.0,0.0,82,0.00,,---,0.00,VWS V14.01,2013-04-09 07:25:00,
2013-04-09 03:30:00,55.4,50.0,30.06,SSW,209,0.0,2.0,82,0.00,,---,0.00,VWS V14.01,2013-04-09 07:30:00,
2013-04-09 03:35:00,55.3,49.9,30.06,SSW,208,0.0,3.0,82,0.00,,---,0.00,VWS V14.01,2013-04-09 07:35:00,
2013-04-09 03:40:00,55.1,49.7,30.05,SSW,208,0.0,0.0,82,0.00,,---,0.00,VWS V14.01,2013-04-09 07:40:00,
2013-04-09 03:45:00,54.8,49.7,30.05,SSW,208,0.0,0.0,83,0.00,,---,0.00,VWS V14.01,2013-04-09 07:45:00,
2013-04-09 03:50:00,54.5,49.5,30.05,SSW,208,0.0,0.0,83,0.00,,---,0.00,VWS V14.01,2013-04-09 07:50:00,
2013-04-09 03:55:00,54.4,50.0,30.06,SSW,208,0.0,0.0,85,0.00,,---,0.00,VWS V14.01,2013-04-09 07:55:00,
2013-04-09 04:00:00,54.4,50.0,30.06,SSW,208,0.0,0.0,85,0.00,,---,0.00,VWS V14.01,2013-04-09 08:00:00,
2013-04-09 04:05:00,54.4,49.7,30.06,SSW,208,0.0,0.0,84,0.00,,---,0.00,VWS V14.01,2013-04-09 08:05:00,
2013-04-09 04:10:00,54.4,50.0,30.06,SSW,208,0.0,0.0,85,0.00,,---,0.00,VWS V14.01,2013-04-09 08:10:00,
2013-04-09 04:15:00,54.2,49.8,30.06,SSW,208,0.0,0.0,85,0.00,,---,0.00,VWS V14.01,2013-04-09 08:15:00,
2013-04-09 04:20:00,54.1,49.7,30.06,SSW,208,0.0,2.0,85,0.00,,---,0.00,VWS V14.01,2013-04-09 08:20:00,
2013-04-09 04:25:00,53.9,49.5,30.06,SSW,208,0.0,0.0,85,0.00,,---,0.00,VWS V14.01,2013-04-09 08:25:00,
2013-04-09 04:30:00,53.7,49.6,30.06,SSW,208,0.0,0.0,86,0.00,,---,0.00,VWS V14.01,2013-04-09 08:30:00,
2013-04-09 04:35:00,53.6,49.5,30.07,SSW,208,0.0,0.0,86,0.00,,---,0.00,VWS V14.01,2013-04-09 08:35:00,
2013-04-09 04:40:00,53.6,49.5,30.06,SSW,208,0.0,0.0,86,0.00,,---,0.00,VWS V14.01,2013-04-09 08:40:00,
2013-04-09 04:45:00,53.4,49.3,30.06,SSW,208,0.0,0.0,86,0.00,,---,0.00,VWS V14.01,2013-04-09 08:45:00,
2013-04-09 04:50:00,53.5,49.7,30.07,SSW,208,0.0,0.0,87,0.00,,---,0.00,VWS V14.01,2013-04-09 08:50:00,
2013-04-09 04:55:00,53.9,49.8,30.07,SSW,208,0.0,0.0,86,0.00,,---,0.00,VWS V14.01,2013-04-09 08:55:00,
2013-04-09 05:00:00,54.2,49.8,30.06,SSW,208,0.0,0.0,85,0.00,,---,0.00,VWS V14.01,2013-04-09 09:00:00,
2013-04-09 05:05:00,54.1,50.0,30.07,SSW,208,0.0,0.0,86,0.00,,---,0.00,VWS V14.01,2013-04-09 09:05:00,
2013-04-09 05:10:00,54.2,50.4,30.07,SSW,208,0.0,0.0,87,0.00,,---,0.00,VWS V14.01,2013-04-09 09:10:00,
2013-04-09 05:15:00,54.2,49.8,30.07,SSW,208,0.0,0.0,85,0.00,,---,0.00,VWS V14.01,2013-04-09 09:15:00,
2013-04-09 05:20:00,54.2,50.1,30.07,SSW,208,0.0,0.0,86,0.00,,---,0.00,VWS V14.01,2013-04-09 09:20:00,
2013-04-09 05:25:00,54.5,50.1,30.07,SSW,208,0.0,0.0,85,0.00,,---,0.00,VWS V14.01,2013-04-09 09:25:00,
2013-04-09 05:30:00,54.4,50.3,30.07,SSW,208,0.0,0.0,86,0.00,,---,0.00,VWS V14.01,2013-04-09 09:30:00,
2013-04-09 05:35:00,54.5,50.1,30.07,SSW,208,0.0,0.0,85,0.00,,---,0.00,VWS V14.01,2013-04-09 09:35:00,
2013-04-09 05:40:00,55.0,50.3,30.07,SSW,208,0.0,0.0,84,0.00,,---,0.00,VWS V14.01,2013-04-09 09:40:00,
2013-04-09 05:45:00,55.0,50.3,30.08,SSW,208,0.0,0.0,84,0.00,,---,0.00,VWS V14.01,2013-04-09 09:45:00,
2013-04-09 05:50:00,54.8,50.1,30.08,SSW,208,0.0,0.0,84,0.00,,---,0.00,VWS V14.01,2013-04-09 09:50:00,
2013-04-09 05:55:00,54.6,49.5,30.08,SSW,208,0.0,0.0,83,0.00,,---,0.00,VWS V14.01,2013-04-09 09:55:00,
2013-04-09 06:00:00,54.0,49.6,30.08,SSW,206,0.0,1.0,85,0.00,,---,0.00,VWS V14.01,2013-04-09 10:00:00,
2013-04-09 06:05:00,53.7,49.6,30.08,SSW,206,0.0,0.0,86,0.00,,---,0.00,VWS V14.01,2013-04-09 10:05:00,
2013-04-09 06:10:00,53.2,48.8,30.08,SSW,206,0.0,2.0,85,0.00,,---,0.00,VWS V14.01,2013-04-09 10:10:00,
2013-04-09 06:15:00,52.6,48.8,30.08,SSW,209,2.0,2.0,87,0.00,,---,0.00,VWS V14.01,2013-04-09 10:15:00,
2013-04-09 06:20:00,52.4,48.7,30.09,West,260,0.0,3.0,87,0.00,,---,0.00,VWS V14.01,2013-04-09 10:20:00,
2013-04-09 06:25:00,52.5,49.0,30.09,West,260,0.0,1.0,88,0.00,,---,0.00,VWS V14.01,2013-04-09 10:25:00,
2013-04-09 06:30:00,52.6,49.2,30.09,West,263,0.0,2.0,88,0.00,,---,0.00,VWS V14.01,2013-04-09 10:30:00,
2013-04-09 06:35:00,52.4,49.0,30.09,West,263,0.0,0.0,88,0.00,,---,0.00,VWS V14.01,2013-04-09 10:35:00,
2013-04-09 06:40:00,52.4,49.0,30.09,West,263,0.0,0.0,88,0.00,,---,0.00,VWS V14.01,2013-04-09 10:40:00,
2013-04-09 06:45:00,52.7,49.2,30.09,West,263,0.0,0.0,88,0.00,,---,0.00,VWS V14.01,2013-04-09 10:45:00,
2013-04-09 06:50:00,52.4,49.0,30.10,West,263,0.0,0.0,88,0.00,,---,0.00,VWS V14.01,2013-04-09 10:50:00,
2013-04-09 06:55:00,52.3,48.9,30.10,West,263,0.0,0.0,88,0.00,,---,0.00,VWS V14.01,2013-04-09 10:55:00,
2013-04-09 07:00:00,51.9,48.5,30.10,West,263,0.0,1.0,88,0.00,,---,0.00,VWS V14.01,2013-04-09 11:00:00,
2013-04-09 07:05:00,51.9,49.1,30.10,West,263,0.0,0.0,90,0.00,,---,0.00,VWS V14.01,2013-04-09 11:05:00,
2013-04-09 07:10:00,52.3,49.5,30.10,West,263,0.0,0.0,90,0.00,,---,0.00,VWS V14.01,2013-04-09 11:10:00,
2013-04-09 07:15:00,52.3,49.5,30.10,West,263,0.0,0.0,90,0.00,,---,0.00,VWS V14.01,2013-04-09 11:15:00,
2013-04-09 07:20:00,52.2,49.1,30.10,West,263,0.0,0.0,89,0.00,,---,0.00,VWS V14.01,2013-04-09 11:20:00,
2013-04-09 07:25:00,52.3,49.5,30.11,West,263,0.0,0.0,90,0.00,,---,0.00,VWS V14.01,2013-04-09 11:25:00,
2013-04-09 07:30:00,52.4,49.6,30.11,West,263,0.0,0.0,90,0.00,,---,0.00,VWS V14.01,2013-04-09 11:30:00,
2013-04-09 07:35:00,52.9,50.0,30.11,West,263,0.0,0.0,90,0.00,,---,0.00,VWS V14.01,2013-04-09 11:35:00,
2013-04-09 07:40:00,53.6,50.7,30.11,West,269,0.0,2.0,90,0.00,,---,0.00,VWS V14.01,2013-04-09 11:40:00,
2013-04-09 07:45:00,54.3,51.1,30.11,West,269,0.0,0.0,89,0.00,,---,0.00,VWS V14.01,2013-04-09 11:45:00,
2013-04-09 07:50:00,54.9,51.4,30.11,West,269,0.0,0.0,88,0.00,,---,0.00,VWS V14.01,2013-04-09 11:50:00,
2013-04-09 07:55:00,55.5,51.4,30.12,West,279,0.0,2.0,86,0.00,,---,0.00,VWS V14.01,2013-04-09 11:55:00,
2013-04-09 08:00:00,56.1,52.0,30.12,West,279,0.0,0.0,86,0.00,,---,0.00,VWS V14.01,2013-04-09 12:00:00,
2013-04-09 08:05:00,56.8,52.3,30.12,West,279,0.0,0.0,85,0.00,,---,0.00,VWS V14.01,2013-04-09 12:05:00,
2013-04-09 08:10:00,57.7,52.6,30.12,West,279,0.0,0.0,83,0.00,,---,0.00,VWS V14.01,2013-04-09 12:10:00,
2013-04-09 08:15:00,58.7,53.2,30.12,West,279,0.0,0.0,82,0.00,,---,0.00,VWS V14.01,2013-04-09 12:15:00,
2013-04-09 08:20:00,59.3,53.1,30.13,West,279,0.0,0.0,80,0.00,,---,0.00,VWS V14.01,2013-04-09 12:20:00,
2013-04-09 08:25:00,59.5,53.3,30.13,West,279,0.0,0.0,80,0.00,,---,0.00,VWS V14.01,2013-04-09 12:25:00,
2013-04-09 08:30:00,59.9,53.4,30.13,West,279,0.0,0.0,79,0.00,,---,0.00,VWS V14.01,2013-04-09 12:30:00,
2013-04-09 08:35:00,60.5,53.3,30.13,West,279,0.0,0.0,77,0.00,,---,0.00,VWS V14.01,2013-04-09 12:35:00,
2013-04-09 08:40:00,61.3,53.7,30.13,West,279,0.0,0.0,76,0.00,,---,0.00,VWS V14.01,2013-04-09 12:40:00,
2013-04-09 08:45:00,61.6,53.6,30.13,West,279,0.0,0.0,75,0.00,,---,0.00,VWS V14.01,2013-04-09 12:45:00,
2013-04-09 08:50:00,62.1,54.1,30.13,West,279,0.0,0.0,75,0.00,,---,0.00,VWS V14.01,2013-04-09 12:50:00,
2013-04-09 08:55:00,62.8,53.3,30.13,West,279,0.0,0.0,71,0.00,,---,0.00,VWS V14.01,2013-04-09 12:55:00,
2013-04-09 09:00:00,63.5,53.2,30.13,West,279,0.0,0.0,69,0.00,,---,0.00,VWS V14.01,2013-04-09 13:00:00,
2013-04-09 09:05:00,63.7,53.7,30.13,West,279,0.0,1.0,70,0.00,,---,0.00,VWS V14.01,2013-04-09 13:05:00,
2013-04-09 09:10:00,64.1,53.3,30.12,West,278,0.0,2.0,68,0.00,,---,0.00,VWS V14.01,2013-04-09 13:10:00,
2013-04-09 09:15:00,64.5,53.3,30.12,West,278,0.0,1.0,67,0.00,,---,0.00,VWS V14.01,2013-04-09 13:15:00,
2013-04-09 09:20:00,64.8,53.6,30.12,South,180,0.0,2.0,67,0.00,,---,0.00,VWS V14.01,2013-04-09 13:20:00,
2013-04-09 09:25:00,65.2,54.0,30.12,South,178,2.0,4.0,67,0.00,,---,0.00,VWS V14.01,2013-04-09 13:25:00,
2013-04-09 09:30:00,65.6,54.8,30.12,SSE,149,0.0,5.0,68,0.00,,---,0.00,VWS V14.01,2013-04-09 13:30:00,
2013-04-09 09:35:00,66.0,54.3,30.13,SW,219,3.0,4.0,66,0.00,,---,0.00,VWS V14.01,2013-04-09 13:35:00,
2013-04-09 09:40:00,66.4,53.4,30.12,SW,217,2.0,4.0,63,0.00,,---,0.00,VWS V14.01,2013-04-09 13:40:00,
2013-04-09 09:45:00,66.8,53.8,30.13,South,177,2.0,5.0,63,0.00,,---,0.00,VWS V14.01,2013-04-09 13:45:00,
2013-04-09 09:50:00,67.3,53.8,30.13,South,184,1.0,5.0,62,0.00,,---,0.00,VWS V14.01,2013-04-09 13:50:00,
2013-04-09 09:55:00,67.5,53.6,30.13,SSW,205,0.0,6.0,61,0.00,,---,0.00,VWS V14.01,2013-04-09 13:55:00,
2013-04-09 10:00:00,67.8,54.3,30.13,SSW,209,3.0,7.0,62,0.00,,---,0.00,VWS V14.01,2013-04-09 14:00:00,
2013-04-09 10:05:00,68.2,53.3,30.13,WSW,239,5.0,7.0,59,0.00,,---,0.00,VWS V14.01,2013-04-09 14:05:00,
2013-04-09 10:10:00,69.0,54.1,30.13,WSW,243,4.0,9.0,59,0.00,,---,0.00,VWS V14.01,2013-04-09 14:10:00,
2013-04-09 10:15:00,69.3,54.4,30.13,SSW,200,7.0,9.0,59,0.00,,---,0.00,VWS V14.01,2013-04-09 14:15:00,
2013-04-09 10:20:00,69.7,54.8,30.13,SSW,202,5.0,9.0,59,0.00,,---,0.00,VWS V14.01,2013-04-09 14:20:00,
2013-04-09 10:25:00,70.1,54.2,30.13,West,275,7.0,10.0,57,0.00,,---,0.00,VWS V14.01,2013-04-09 14:25:00,
2013-04-09 10:30:00,71.0,55.0,30.13,South,182,6.0,9.0,57,0.00,,---,0.00,VWS V14.01,2013-04-09 14:30:00,
2013-04-09 10:35:00,70.8,53.8,30.14,West,272,5.0,10.0,55,0.00,,---,0.00,VWS V14.01,2013-04-09 14:35:00,
2013-04-09 10:40:00,71.2,54.2,30.14,SW,221,5.0,11.0,55,0.00,,---,0.00,VWS V14.01,2013-04-09 14:40:00,
2013-04-09 10:45:00,71.5,54.5,30.13,South,175,6.0,9.0,55,0.00,,---,0.00,VWS V14.01,2013-04-09 14:45:00,
2013-04-09 10:50:00,71.2,54.2,30.13,SW,219,8.0,11.0,55,0.00,,---,0.00,VWS V14.01,2013-04-09 14:50:00,
2013-04-09 10:55:00,72.0,54.0,30.14,West,277,4.0,11.0,53,0.00,,---,0.00,VWS V14.01,2013-04-09 14:55:00,
2013-04-09 11:00:00,72.6,54.0,30.13,SSW,200,5.0,7.0,52,0.00,,---,0.00,VWS V14.01,2013-04-09 15:00:00,
2013-04-09 11:05:00,72.7,53.5,30.14,SW,217,3.0,8.0,51,0.00,,---,0.00,VWS V14.01,2013-04-09 15:05:00,
2013-04-09 11:10:00,73.1,54.5,30.13,SSW,201,4.0,11.0,52,0.00,,---,0.00,VWS V14.01,2013-04-09 15:10:00,
2013-04-09 11:15:00,73.6,55.4,30.14,SSW,205,5.0,8.0,53,0.00,,---,0.00,VWS V14.01,2013-04-09 15:15:00,
2013-04-09 11:20:00,74.2,56.0,30.13,South,174,7.0,13.0,53,0.00,,---,0.00,VWS V14.01,2013-04-09 15:20:00,
2013-04-09 11:25:00,73.9,54.7,30.13,SSW,209,6.0,10.0,51,0.00,,---,0.00,VWS V14.01,2013-04-09 15:25:00,
2013-04-09 11:30:00,74.4,56.2,30.13,SSE,153,7.0,9.0,53,0.00,,---,0.00,VWS V14.01,2013-04-09 15:30:00,
2013-04-09 11:35:00,74.4,54.6,30.13,South,189,9.0,11.0,50,0.00,,---,0.00,VWS V14.01,2013-04-09 15:35:00,
2013-04-09 11:40:00,74.7,55.9,30.13,SSW,211,6.0,11.0,52,0.00,,---,0.00,VWS V14.01,2013-04-09 15:40:00,
2013-04-09 11:45:00,75.2,54.2,30.13,SW,234,2.0,8.0,48,0.00,,---,0.00,VWS V14.01,2013-04-09 15:45:00,
2013-04-09 11:50:00,75.2,54.8,30.12,SSW,196,6.0,11.0,49,0.00,,---,0.00,VWS V14.01,2013-04-09 15:50:00,
2013-04-09 11:55:00,75.3,54.8,30.12,SW,235,4.0,11.0,49,0.00,,---,0.00,VWS V14.01,2013-04-09 15:55:00,
2013-04-09 12:00:00,75.6,54.5,30.12,SW,226,2.0,11.0,48,0.00,,---,0.00,VWS V14.01,2013-04-09 16:00:00,
2013-04-09 12:05:00,76.0,54.9,30.12,SW,220,8.0,13.0,48,0.00,,---,0.00,VWS V14.01,2013-04-09 16:05:00,
2013-04-09 12:10:00,76.1,55.6,30.12,South,184,4.0,14.0,49,0.00,,---,0.00,VWS V14.01,2013-04-09 16:10:00,
2013-04-09 12:15:00,75.7,55.2,30.12,SSW,202,5.0,10.0,49,0.00,,---,0.00,VWS V14.01,2013-04-09 16:15:00,
2013-04-09 12:20:00,75.8,54.7,30.11,SSW,194,6.0,8.0,48,0.00,,---,0.00,VWS V14.01,2013-04-09 16:20:00,
2013-04-09 12:25:00,76.0,54.9,30.11,SSW,198,3.0,9.0,48,0.00,,---,0.00,VWS V14.01,2013-04-09 16:25:00,
2013-04-09 12:30:00,76.1,53.8,30.11,SSW,204,3.0,11.0,46,0.00,,---,0.00,VWS V14.01,2013-04-09 16:30:00,
2013-04-09 12:35:00,76.5,55.9,30.11,SSW,200,8.0,10.0,49,0.00,,---,0.00,VWS V14.01,2013-04-09 16:35:00,
2013-04-09 12:40:00,76.6,54.3,30.11,South,182,3.0,10.0,46,0.00,,---,0.00,VWS V14.01,2013-04-09 16:40:00,
2013-04-09 12:45:00,76.6,54.3,30.11,SSW,208,6.0,14.0,46,0.00,,---,0.00,VWS V14.01,2013-04-09 16:45:00,
2013-04-09 12:50:00,76.6,54.9,30.10,South,177,2.0,7.0,47,0.00,,---,0.00,VWS V14.01,2013-04-09 16:50:00,
2013-04-09 12:55:00,77.1,55.3,30.11,SSE,160,2.0,11.0,47,0.00,,---,0.00,VWS V14.01,2013-04-09 16:55:00,
2013-04-09 13:00:00,77.4,56.8,30.10,SSE,163,5.0,13.0,49,0.00,,---,0.00,VWS V14.01,2013-04-09 17:00:00,
2013-04-09 13:05:00,78.1,55.7,30.10,SSW,193,5.0,9.0,46,0.00,,---,0.00,VWS V14.01,2013-04-09 17:05:00,
2013-04-09 13:10:00,78.0,54.3,30.10,South,184,6.0,10.0,44,0.00,,---,0.00,VWS V14.01,2013-04-09 17:10:00,
2013-04-09 13:15:00,77.6,54.0,30.10,South,173,2.0,11.0,44,0.00,,---,0.00,VWS V14.01,2013-04-09 17:15:00,
2013-04-09 13:20:00,77.6,55.8,30.09,SSW,201,8.0,13.0,47,0.00,,---,0.00,VWS V14.01,2013-04-09 17:20:00,
2013-04-09 13:25:00,77.7,55.3,30.09,SSW,212,7.0,10.0,46,0.00,,---,0.00,VWS V14.01,2013-04-09 17:25:00,
2013-04-09 13:30:00,78.5,55.4,30.09,SE,134,9.0,13.0,45,0.00,,---,0.00,VWS V14.01,2013-04-09 17:30:00,
2013-04-09 13:35:00,78.4,55.3,30.09,SSW,193,8.0,15.0,45,0.00,,---,0.00,VWS V14.01,2013-04-09 17:35:00,
2013-04-09 13:40:00,78.5,54.2,30.09,SSW,198,7.0,10.0,43,0.00,,---,0.00,VWS V14.01,2013-04-09 17:40:00,
2013-04-09 13:45:00,78.7,55.0,30.08,SW,215,5.0,14.0,44,0.00,,---,0.00,VWS V14.01,2013-04-09 17:45:00,
2013-04-09 13:50:00,79.3,53.6,30.08,South,176,8.0,14.0,41,0.00,,---,0.00,VWS V14.01,2013-04-09 17:50:00,
2013-04-09 13:55:00,78.9,53.9,30.08,SSW,194,11.0,13.0,42,0.00,,---,0.00,VWS V14.01,2013-04-09 17:55:00,
2013-04-09 14:00:00,79.0,51.2,30.08,SSW,194,1.0,18.0,38,0.00,,---,0.00,VWS V14.01,2013-04-09 18:00:00,
2013-04-09 14:05:00,79.7,53.3,30.08,South,175,9.0,9.0,40,0.00,,---,0.00,VWS V14.01,2013-04-09 18:05:00,
2013-04-09 14:10:00,79.3,53.6,30.08,West,275,6.0,13.0,41,0.00,,---,0.00,VWS V14.01,2013-04-09 18:10:00,
2013-04-09 14:15:00,79.3,51.5,30.08,SSW,208,7.0,13.0,38,0.00,,---,0.00,VWS V14.01,2013-04-09 18:15:00,
2013-04-09 14:20:00,79.4,52.3,30.07,SSW,194,4.0,13.0,39,0.00,,---,0.00,VWS V14.01,2013-04-09 18:20:00,
2013-04-09 14:25:00,79.6,51.8,30.07,SW,225,4.0,11.0,38,0.00,,---,0.00,VWS V14.01,2013-04-09 18:25:00,
2013-04-09 14:30:00,79.7,53.3,30.07,SW,233,3.0,9.0,40,0.00,,---,0.00,VWS V14.01,2013-04-09 18:30:00,
2013-04-09 14:35:00,80.0,52.8,30.07,SW,229,2.0,12.0,39,0.00,,---,0.00,VWS V14.01,2013-04-09 18:35:00,
2013-04-09 14:40:00,79.9,53.5,30.06,SE,138,7.0,15.0,40,0.00,,---,0.00,VWS V14.01,2013-04-09 18:40:00,
2013-04-09 14:45:00,79.9,52.8,30.06,SW,217,5.0,11.0,39,0.00,,---,0.00,VWS V14.01,2013-04-09 18:45:00,
2013-04-09 14:50:00,79.9,53.5,30.06,SW,215,5.0,13.0,40,0.00,,---,0.00,VWS V14.01,2013-04-09 18:50:00,
2013-04-09 14:55:00,80.0,53.5,30.05,SSW,203,1.0,10.0,40,0.00,,---,0.00,VWS V14.01,2013-04-09 18:55:00,
2013-04-09 15:00:00,80.1,53.6,30.05,SW,231,4.0,13.0,40,0.00,,---,0.00,VWS V14.01,2013-04-09 19:00:00,
2013-04-09 15:05:00,79.8,54.7,30.05,South,173,6.0,14.0,42,0.00,,---,0.00,VWS V14.01,2013-04-09 19:05:00,
2013-04-09 15:10:00,79.7,53.3,30.05,South,175,6.0,15.0,40,0.00,,---,0.00,VWS V14.01,2013-04-09 19:10:00,
2013-04-09 15:15:00,80.5,54.0,30.05,SW,217,5.0,10.0,40,0.00,,---,0.00,VWS V14.01,2013-04-09 19:15:00,
2013-04-09 15:20:00,81.4,53.4,30.04,SSW,196,5.0,11.0,38,0.00,,---,0.00,VWS V14.01,2013-04-09 19:20:00,
2013-04-09 15:25:00,81.4,54.8,30.04,SSE,156,5.0,13.0,40,0.00,,---,0.00,VWS V14.01,2013-04-09 19:25:00,
2013-04-09 15:30:00,81.7,52.9,30.04,WSW,242,4.0,9.0,37,0.00,,---,0.00,VWS V14.01,2013-04-09 19:30:00,
2013-04-09 15:35:00,81.7,52.2,30.04,SW,218,7.0,16.0,36,0.00,,---,0.00,VWS V14.01,2013-04-09 19:35:00,
2013-04-09 15:40:00,81.1,50.9,30.04,SSE,164,4.0,16.0,35,0.00,,---,0.00,VWS V14.01,2013-04-09 19:40:00,
2013-04-09 15:45:00,81.3,51.1,30.04,WNW,303,6.0,11.0,35,0.00,,---,0.00,VWS V14.01,2013-04-09 19:45:00,
2013-04-09 15:50:00,81.6,52.8,30.04,SSW,194,5.0,14.0,37,0.00,,---,0.00,VWS V14.01,2013-04-09 19:50:00,
2013-04-09 15:55:00,81.3,51.1,30.04,SSW,209,6.0,9.0,35,0.00,,---,0.00,VWS V14.01,2013-04-09 19:55:00,
2013-04-09 16:00:00,81.1,53.1,30.03,SW,224,7.0,9.0,38,0.00,,---,0.00,VWS V14.01,2013-04-09 20:00:00,
2013-04-09 16:05:00,81.1,52.4,30.03,South,180,9.0,13.0,37,0.00,,---,0.00,VWS V14.01,2013-04-09 20:05:00,
2013-04-09 16:10:00,80.7,53.5,30.03,South,181,6.0,11.0,39,0.00,,---,0.00,VWS V14.01,2013-04-09 20:10:00,
2013-04-09 16:15:00,80.6,53.4,30.03,SW,215,4.0,12.0,39,0.00,,---,0.00,VWS V14.01,2013-04-09 20:15:00,
2013-04-09 16:20:00,81.3,52.6,30.03,NW,319,4.0,11.0,37,0.00,,---,0.00,VWS V14.01,2013-04-09 20:20:00,
2013-04-09 16:25:00,81.7,52.2,30.03,WNW,295,5.0,11.0,36,0.00,,---,0.00,VWS V14.01,2013-04-09 20:25:00,
2013-04-09 16:30:00,81.8,51.5,30.03,SSW,192,5.0,13.0,35,0.00,,---,0.00,VWS V14.01,2013-04-09 20:30:00,
2013-04-09 16:35:00,81.4,50.4,30.03,South,184,4.0,15.0,34,0.00,,---,0.00,VWS V14.01,2013-04-09 20:35:00,
2013-04-09 16:40:00,81.3,51.1,30.03,West,280,5.0,11.0,35,0.00,,---,0.00,VWS V14.01,2013-04-09 20:40:00,
2013-04-09 16:45:00,81.8,50.7,30.03,SW,225,10.0,11.0,34,0.00,,---,0.00,VWS V14.01,2013-04-09 20:45:00,
2013-04-09 16:50:00,81.4,51.2,30.03,SSW,196,4.0,12.0,35,0.00,,---,0.00,VWS V14.01,2013-04-09 20:50:00,
2013-04-09 16:55:00,81.1,52.4,30.02,South,180,3.0,13.0,37,0.00,,---,0.00,VWS V14.01,2013-04-09 20:55:00,
2013-04-09 17:00:00,81.2,52.5,30.02,SW,231,3.0,12.0,37,0.00,,---,0.00,VWS V14.01,2013-04-09 21:00:00,
2013-04-09 17:05:00,80.8,52.8,30.02,SSW,196,3.0,11.0,38,0.00,,---,0.00,VWS V14.01,2013-04-09 21:05:00,
2013-04-09 17:10:00,80.9,52.2,30.02,WSW,238,6.0,13.0,37,0.00,,---,0.00,VWS V14.01,2013-04-09 21:10:00,
2013-04-09 17:15:00,80.8,52.1,30.01,South,180,3.0,12.0,37,0.00,,---,0.00,VWS V14.01,2013-04-09 21:15:00,
2013-04-09 17:20:00,80.8,52.1,30.01,West,261,3.0,7.0,37,0.00,,---,0.00,VWS V14.01,2013-04-09 21:20:00,
2013-04-09 17:25:00,81.1,52.4,30.02,SSW,206,6.0,10.0,37,0.00,,---,0.00,VWS V14.01,2013-04-09 21:25:00,
2013-04-09 17:30:00,80.6,53.4,30.02,SSW,192,3.0,12.0,39,0.00,,---,0.00,VWS V14.01,2013-04-09 21:30:00,
2013-04-09 17:35:00,80.5,54.0,30.01,SW,218,9.0,10.0,40,0.00,,---,0.00,VWS V14.01,2013-04-09 21:35:00,
2013-04-09 17:40:00,80.3,53.1,30.01,SW,233,6.0,10.0,39,0.00,,---,0.00,VWS V14.01,2013-04-09 21:40:00,
2013-04-09 17:45:00,80.5,53.3,30.01,SW,233,7.0,11.0,39,0.00,,---,0.00,VWS V14.01,2013-04-09 21:45:00,
2013-04-09 17:50:00,80.6,52.7,30.01,SSW,208,2.0,8.0,38,0.00,,---,0.00,VWS V14.01,2013-04-09 21:50:00,
2013-04-09 17:55:00,80.4,53.9,30.01,SSW,202,4.0,13.0,40,0.00,,---,0.00,VWS V14.01,2013-04-09 21:55:00,
2013-04-09 18:00:00,80.0,54.2,30.02,WSW,244,11.0,11.0,41,0.00,,---,0.00,VWS V14.01,2013-04-09 22:00:00,
2013-04-09 18:05:00,80.3,53.8,30.01,SW,221,6.0,12.0,40,0.00,,---,0.00,VWS V14.01,2013-04-09 22:05:00,
2013-04-09 18:10:00,80.1,54.3,30.02,SSW,207,9.0,13.0,41,0.00,,---,0.00,VWS V14.01,2013-04-09 22:10:00,
2013-04-09 18:15:00,79.8,54.0,30.02,SSE,165,6.0,11.0,41,0.00,,---,0.00,VWS V14.01,2013-04-09 22:15:00,
2013-04-09 18:20:00,79.7,55.2,30.02,South,190,4.0,11.0,43,0.00,,---,0.00,VWS V14.01,2013-04-09 22:20:00,
2013-04-09 18:25:00,79.4,55.6,30.02,SSW,208,6.0,10.0,44,0.00,,---,0.00,VWS V14.01,2013-04-09 22:25:00,
2013-04-09 18:30:00,79.3,55.5,30.01,SSW,202,2.0,9.0,44,0.00,,---,0.00,VWS V14.01,2013-04-09 22:30:00,
2013-04-09 18:35:00,79.3,55.5,30.01,SSW,207,3.0,8.0,44,0.00,,---,0.00,VWS V14.01,2013-04-09 22:35:00,
2013-04-09 18:40:00,79.3,55.5,30.01,WSW,255,5.0,10.0,44,0.00,,---,0.00,VWS V14.01,2013-04-09 22:40:00,
2013-04-09 18:45:00,79.1,56.0,30.01,SSW,196,6.0,6.0,45,0.00,,---,0.00,VWS V14.01,2013-04-09 22:45:00,
2013-04-09 18:50:00,79.1,56.0,30.01,SW,232,7.0,9.0,45,0.00,,---,0.00,VWS V14.01,2013-04-09 22:50:00,
2013-04-09 18:55:00,79.0,56.5,30.01,SW,220,2.0,9.0,46,0.00,,---,0.00,VWS V14.01,2013-04-09 22:55:00,
2013-04-09 19:00:00,78.6,56.1,30.01,SW,228,3.0,8.0,46,0.00,,---,0.00,VWS V14.01,2013-04-09 23:00:00,
2013-04-09 19:05:00,78.2,56.3,30.01,SSW,202,2.0,8.0,47,0.00,,---,0.00,VWS V14.01,2013-04-09 23:05:00,
2013-04-09 19:10:00,77.8,56.6,30.01,WSW,240,2.0,5.0,48,0.00,,---,0.00,VWS V14.01,2013-04-09 23:10:00,
2013-04-09 19:15:00,77.6,56.4,30.01,SSW,212,3.0,7.0,48,0.00,,---,0.00,VWS V14.01,2013-04-09 23:15:00,
2013-04-09 19:20:00,77.5,56.3,30.01,SW,227,4.0,9.0,48,0.00,,---,0.00,VWS V14.01,2013-04-09 23:20:00,
2013-04-09 19:25:00,77.3,56.1,30.01,WSW,240,5.0,5.0,48,0.00,,---,0.00,VWS V14.01,2013-04-09 23:25:00,
2013-04-09 19:30:00,77.1,56.5,30.01,WSW,244,2.0,10.0,49,0.00,,---,0.00,VWS V14.01,2013-04-09 23:30:00,
2013-04-09 19:35:00,76.8,56.2,30.01,WSW,240,6.0,8.0,49,0.00,,---,0.00,VWS V14.01,2013-04-09 23:35:00,
2013-04-09 19:40:00,76.6,56.0,30.01,WSW,246,3.0,7.0,49,0.00,,---,0.00,VWS V14.01,2013-04-09 23:40:00,
2013-04-09 19:45:00,76.3,56.3,30.01,WSW,250,4.0,5.0,50,0.00,,---,0.00,VWS V14.01,2013-04-09 23:45:00,
2013-04-09 19:50:00,76.1,56.1,30.01,WSW,239,3.0,5.0,50,0.00,,---,0.00,VWS V14.01,2013-04-09 23:50:00,
2013-04-09 19:55:00,75.8,56.4,30.02,SSW,193,4.0,6.0,51,0.00,,---,0.00,VWS V14.01,2013-04-09 23:55:00,
2013-04-09 20:00:00,75.4,56.0,30.02,SW,218,0.0,5.0,51,0.00,,---,0.00,VWS V14.01,2013-04-10 00:00:00,
2013-04-09 20:05:00,75.0,56.2,30.02,SW,219,0.0,4.0,52,0.00,,---,0.00,VWS V14.01,2013-04-10 00:05:00,
2013-04-09 20:10:00,74.7,56.5,30.02,SW,219,2.0,2.0,53,0.00,,---,0.00,VWS V14.01,2013-04-10 00:10:00,
2013-04-09 20:15:00,74.2,56.5,30.02,SW,223,0.0,3.0,54,0.00,,---,0.00,VWS V14.01,2013-04-10 00:15:00,
2013-04-09 20:20:00,73.6,56.5,30.02,SW,225,1.0,1.0,55,0.00,,---,0.00,VWS V14.01,2013-04-10 00:20:00,
2013-04-09 20:25:00,73.2,56.1,30.02,SW,234,0.0,4.0,55,0.00,,---,0.00,VWS V14.01,2013-04-10 00:25:00,
2013-04-09 20:30:00,72.4,55.8,30.02,WSW,253,0.0,3.0,56,0.00,,---,0.00,VWS V14.01,2013-04-10 00:30:00,
2013-04-09 20:35:00,72.0,56.9,30.02,WSW,254,1.0,2.0,59,0.00,,---,0.00,VWS V14.01,2013-04-10 00:35:00,
2013-04-09 20:40:00,71.7,56.2,30.02,WSW,254,0.0,1.0,58,0.00,,---,0.00,VWS V14.01,2013-04-10 00:40:00,
2013-04-09 20:45:00,71.1,56.1,30.03,WSW,254,0.0,1.0,59,0.00,,---,0.00,VWS V14.01,2013-04-10 00:45:00,
2013-04-09 20:50:00,70.2,56.1,30.03,WSW,254,0.0,0.0,61,0.00,,---,0.00,VWS V14.01,2013-04-10 00:50:00,
2013-04-09 20:55:00,69.5,56.8,30.03,WSW,254,0.0,1.0,64,0.00,,---,0.00,VWS V14.01,2013-04-10 00:55:00,
2013-04-09 21:00:00,68.9,55.8,30.03,WSW,254,0.0,2.0,63,0.00,,---,0.00,VWS V14.01,2013-04-10 01:00:00,
2013-04-09 21:05:00,68.8,56.6,30.03,West,259,0.0,3.0,65,0.00,,---,0.00,VWS V14.01,2013-04-10 01:05:00,
2013-04-09 21:10:00,69.1,56.0,30.03,WSW,258,0.0,2.0,63,0.00,,---,0.00,VWS V14.01,2013-04-10 01:10:00,
2013-04-09 21:15:00,69.8,56.2,30.03,SSE,153,2.0,4.0,62,0.00,,---,0.00,VWS V14.01,2013-04-10 01:15:00,
2013-04-09 21:20:00,70.6,56.1,30.03,South,182,1.0,4.0,60,0.00,,---,0.00,VWS V14.01,2013-04-10 01:20:00,
2013-04-09 21:25:00,71.0,56.0,30.03,West,275,0.0,3.0,59,0.00,,---,0.00,VWS V14.01,2013-04-10 01:25:00,
2013-04-09 21:30:00,71.4,56.3,30.04,SW,218,1.0,3.0,59,0.00,,---,0.00,VWS V14.01,2013-04-10 01:30:00,
2013-04-09 21:35:00,71.8,55.8,30.04,West,273,1.0,10.0,57,0.00,,---,0.00,VWS V14.01,2013-04-10 01:35:00,
2013-04-09 21:40:00,71.8,56.2,30.03,WSW,245,3.0,8.0,58,0.00,,---,0.00,VWS V14.01,2013-04-10 01:40:00,
2013-04-09 21:45:00,71.9,55.9,30.04,SSW,202,2.0,7.0,57,0.00,,---,0.00,VWS V14.01,2013-04-10 01:45:00,
2013-04-09 21:50:00,72.2,55.7,30.03,WSW,252,3.0,8.0,56,0.00,,---,0.00,VWS V14.01,2013-04-10 01:50:00,
2013-04-09 21:55:00,72.1,56.0,30.03,WSW,252,2.0,8.0,57,0.00,,---,0.00,VWS V14.01,2013-04-10 01:55:00,
2013-04-09 22:00:00,72.0,56.0,30.03,West,273,4.0,7.0,57,0.00,,---,0.00,VWS V14.01,2013-04-10 02:00:00,
2013-04-09 22:05:00,71.9,55.4,30.03,West,265,2.0,10.0,56,0.00,,---,0.00,VWS V14.01,2013-04-10 02:05:00,
2013-04-09 22:10:00,71.9,55.9,30.03,SW,223,4.0,8.0,57,0.00,,---,0.00,VWS V14.01,2013-04-10 02:10:00,
2013-04-09 22:15:00,71.9,55.9,30.03,SW,217,4.0,11.0,57,0.00,,---,0.00,VWS V14.01,2013-04-10 02:15:00,
2013-04-09 22:20:00,71.9,55.4,30.03,WSW,244,3.0,11.0,56,0.00,,---,0.00,VWS V14.01,2013-04-10 02:20:00,
2013-04-09 22:25:00,72.0,55.5,30.03,SW,227,6.0,8.0,56,0.00,,---,0.00,VWS V14.01,2013-04-10 02:25:00,
2013-04-09 22:30:00,72.0,55.5,30.03,West,273,5.0,9.0,56,0.00,,---,0.00,VWS V14.01,2013-04-10 02:30:00,
2013-04-09 22:35:00,71.9,55.4,30.02,WNW,292,6.0,11.0,56,0.00,,---,0.00,VWS V14.01,2013-04-10 02:35:00,
2013-04-09 22:40:00,71.8,55.3,30.03,WSW,243,5.0,12.0,56,0.00,,---,0.00,VWS V14.01,2013-04-10 02:40:00,
2013-04-09 22:45:00,71.7,55.7,30.02,SSW,213,7.0,8.0,57,0.00,,---,0.00,VWS V14.01,2013-04-10 02:45:00,
2013-04-09 22:50:00,71.7,55.7,30.02,South,186,2.0,14.0,57,0.00,,---,0.00,VWS V14.01,2013-04-10 02:50:00,
2013-04-09 22:55:00,71.7,55.7,30.02,WSW,240,5.0,7.0,57,0.00,,---,0.00,VWS V14.01,2013-04-10 02:55:00,
2013-04-09 23:00:00,71.7,55.7,30.02,SSW,212,9.0,12.0,57,0.00,,---,0.00,VWS V14.01,2013-04-10 03:00:00,
2013-04-09 23:05:00,71.7,55.2,30.01,SW,225,6.0,13.0,56,0.00,,---,0.00,VWS V14.01,2013-04-10 03:05:00,
2013-04-09 23:10:00,71.7,55.2,30.01,WSW,242,6.0,9.0,56,0.00,,---,0.00,VWS V14.01,2013-04-10 03:10:00,
2013-04-09 23:15:00,71.7,55.2,30.01,WSW,258,4.0,10.0,56,0.00,,---,0.00,VWS V14.01,2013-04-10 03:15:00,
2013-04-09 23:20:00,71.6,55.6,30.00,WSW,258,3.0,9.0,57,0.00,,---,0.00,VWS V14.01,2013-04-10 03:20:00,
2013-04-09 23:25:00,71.4,55.4,30.00,West,262,4.0,9.0,57,0.00,,---,0.00,VWS V14.01,2013-04-10 03:25:00,
2013-04-09 23:30:00,71.3,55.3,30.01,SW,229,3.0,8.0,57,0.00,,---,0.00,VWS V14.01,2013-04-10 03:30:00,
2013-04-09 23:35:00,71.5,55.5,30.01,WSW,254,6.0,11.0,57,0.00,,---,0.00,VWS V14.01,2013-04-10 03:35:00,
2013-04-09 23:40:00,71.7,55.2,30.01,West,268,4.0,17.0,56,0.00,,---,0.00,VWS V14.01,2013-04-10 03:40:00,
2013-04-09 23:45:00,71.8,55.3,30.00,West,261,7.0,10.0,56,0.00,,---,0.00,VWS V14.01,2013-04-10 03:45:00,
2013-04-09 23:50:00,71.6,55.1,30.01,WSW,253,4.0,10.0,56,0.00,,---,0.00,VWS V14.01,2013-04-10 03:50:00,
2013-04-09 23:55:00,71.2,55.2,30.01,West,263,4.0,12.0,57,0.00,,---,0.00,VWS V14.01,2013-04-10 03:55:00,